sensor_id;sensor_type;location;lat;lon;timestamp;P1;durP1;ratioP1;P2;durP2;ratioP2
18290;SDS011;9271;48.590;8.866;2022-12-18T00:01:58;18.53;;;11.17;;
18290;SDS011;9271;48.590;8.866;2022-12-18T00:04:25;41.67;;;11.67;;
18290;SDS011;9271;48.590;8.866;2022-12-18T00:06:52;37.40;;;12.57;;
18290;SDS011;9271;48.590;8.866;2022-12-18T00:09:20;53.03;;;13.60;;
18290;SDS011;9271;48.590;8.866;2022-12-18T00:11:46;94.97;;;16.00;;
18290;SDS011;9271;48.590;8.866;2022-12-18T00:14:13;71.97;;;14.80;;
18290;SDS011;9271;48.590;8.866;2022-12-18T00:16:42;32.03;;;12.83;;
18290;SDS011;9271;48.590;8.866;2022-12-18T00:19:11;125.60;;;15.07;;
18290;SDS011;9271;48.590;8.866;2022-12-18T00:21:39;41.53;;;12.70;;
18290;SDS011;9271;48.590;8.866;2022-12-18T00:24:07;24.03;;;11.87;;
18290;SDS011;9271;48.590;8.866;2022-12-18T00:26:35;26.07;;;11.13;;
18290;SDS011;9271;48.590;8.866;2022-12-18T00:29:04;19.90;;;10.67;;
18290;SDS011;9271;48.590;8.866;2022-12-18T00:31:33;85.50;;;15.10;;
18290;SDS011;9271;48.590;8.866;2022-12-18T00:34:01;20.47;;;11.27;;
18290;SDS011;9271;48.590;8.866;2022-12-18T00:36:30;19.43;;;11.23;;
18290;SDS011;9271;48.590;8.866;2022-12-18T00:38:58;26.47;;;12.63;;
18290;SDS011;9271;48.590;8.866;2022-12-18T00:41:29;24.93;;;11.37;;
18290;SDS011;9271;48.590;8.866;2022-12-18T00:44:14;17.70;;;11.17;;
18290;SDS011;9271;48.590;8.866;2022-12-18T00:46:42;22.47;;;12.20;;
18290;SDS011;9271;48.590;8.866;2022-12-18T00:49:10;22.37;;;11.73;;
18290;SDS011;9271;48.590;8.866;2022-12-18T00:51:40;17.80;;;10.77;;
18290;SDS011;9271;48.590;8.866;2022-12-18T00:54:07;18.40;;;10.93;;
18290;SDS011;9271;48.590;8.866;2022-12-18T00:56:35;21.70;;;11.10;;
18290;SDS011;9271;48.590;8.866;2022-12-18T00:59:05;17.20;;;10.63;;
18290;SDS011;9271;48.590;8.866;2022-12-18T01:01:32;18.30;;;10.67;;
18290;SDS011;9271;48.590;8.866;2022-12-18T01:03:59;18.40;;;10.67;;
18290;SDS011;9271;48.590;8.866;2022-12-18T01:06:27;19.50;;;11.37;;
18290;SDS011;9271;48.590;8.866;2022-12-18T01:08:55;17.70;;;10.47;;
18290;SDS011;9271;48.590;8.866;2022-12-18T01:11:22;16.70;;;10.83;;
18290;SDS011;9271;48.590;8.866;2022-12-18T01:13:49;20.13;;;10.93;;
18290;SDS011;9271;48.590;8.866;2022-12-18T01:16:17;28.33;;;12.67;;
18290;SDS011;9271;48.590;8.866;2022-12-18T01:18:44;24.07;;;12.03;;
18290;SDS011;9271;48.590;8.866;2022-12-18T01:21:13;23.33;;;11.63;;
18290;SDS011;9271;48.590;8.866;2022-12-18T01:23:41;22.73;;;12.43;;
18290;SDS011;9271;48.590;8.866;2022-12-18T01:26:12;27.03;;;13.00;;
18290;SDS011;9271;48.590;8.866;2022-12-18T01:28:43;30.10;;;11.00;;
18290;SDS011;9271;48.590;8.866;2022-12-18T01:31:14;20.57;;;11.80;;
18290;SDS011;9271;48.590;8.866;2022-12-18T01:33:44;25.63;;;12.03;;
18290;SDS011;9271;48.590;8.866;2022-12-18T01:36:14;19.63;;;10.83;;
18290;SDS011;9271;48.590;8.866;2022-12-18T01:38:45;16.27;;;10.57;;
18290;SDS011;9271;48.590;8.866;2022-12-18T01:41:14;17.67;;;10.53;;
18290;SDS011;9271;48.590;8.866;2022-12-18T01:43:44;20.67;;;10.70;;
18290;SDS011;9271;48.590;8.866;2022-12-18T01:46:12;20.20;;;10.70;;
18290;SDS011;9271;48.590;8.866;2022-12-18T01:48:39;17.00;;;10.37;;
18290;SDS011;9271;48.590;8.866;2022-12-18T01:51:07;18.17;;;9.83;;
18290;SDS011;9271;48.590;8.866;2022-12-18T01:53:36;20.03;;;10.57;;
18290;SDS011;9271;48.590;8.866;2022-12-18T01:56:05;20.17;;;11.03;;
18290;SDS011;9271;48.590;8.866;2022-12-18T01:58:37;16.80;;;10.33;;
18290;SDS011;9271;48.590;8.866;2022-12-18T02:01:09;47.20;;;11.53;;
18290;SDS011;9271;48.590;8.866;2022-12-18T02:03:36;23.63;;;10.53;;
18290;SDS011;9271;48.590;8.866;2022-12-18T02:06:06;27.70;;;11.40;;
18290;SDS011;9271;48.590;8.866;2022-12-18T02:08:38;29.00;;;11.73;;
18290;SDS011;9271;48.590;8.866;2022-12-18T02:11:10;21.07;;;11.53;;
18290;SDS011;9271;48.590;8.866;2022-12-18T02:13:46;25.80;;;10.77;;
18290;SDS011;9271;48.590;8.866;2022-12-18T02:16:21;20.47;;;11.23;;
18290;SDS011;9271;48.590;8.866;2022-12-18T02:18:53;17.87;;;11.37;;
18290;SDS011;9271;48.590;8.866;2022-12-18T02:21:27;18.73;;;10.87;;
18290;SDS011;9271;48.590;8.866;2022-12-18T02:24:02;18.60;;;10.90;;
18290;SDS011;9271;48.590;8.866;2022-12-18T02:26:44;20.97;;;10.67;;
18290;SDS011;9271;48.590;8.866;2022-12-18T02:29:16;18.67;;;11.00;;
18290;SDS011;9271;48.590;8.866;2022-12-18T02:31:47;19.30;;;11.17;;
18290;SDS011;9271;48.590;8.866;2022-12-18T02:34:19;19.07;;;10.97;;
18290;SDS011;9271;48.590;8.866;2022-12-18T02:36:47;20.80;;;11.77;;
18290;SDS011;9271;48.590;8.866;2022-12-18T02:39:15;15.43;;;10.30;;
18290;SDS011;9271;48.590;8.866;2022-12-18T02:41:45;16.70;;;9.60;;
18290;SDS011;9271;48.590;8.866;2022-12-18T02:44:13;18.53;;;11.03;;
18290;SDS011;9271;48.590;8.866;2022-12-18T02:46:40;17.13;;;10.70;;
18290;SDS011;9271;48.590;8.866;2022-12-18T02:49:17;18.40;;;11.07;;
18290;SDS011;9271;48.590;8.866;2022-12-18T02:51:53;18.13;;;10.50;;
18290;SDS011;9271;48.590;8.866;2022-12-18T02:54:34;19.33;;;12.00;;
18290;SDS011;9271;48.590;8.866;2022-12-18T02:57:12;17.73;;;10.73;;
18290;SDS011;9271;48.590;8.866;2022-12-18T02:59:44;20.03;;;10.77;;
18290;SDS011;9271;48.590;8.866;2022-12-18T03:02:21;22.43;;;11.77;;
18290;SDS011;9271;48.590;8.866;2022-12-18T03:04:56;15.47;;;9.80;;
18290;SDS011;9271;48.590;8.866;2022-12-18T03:07:28;17.80;;;11.60;;
18290;SDS011;9271;48.590;8.866;2022-12-18T03:10:03;17.50;;;10.57;;
18290;SDS011;9271;48.590;8.866;2022-12-18T03:12:36;20.37;;;11.77;;
18290;SDS011;9271;48.590;8.866;2022-12-18T03:15:08;19.20;;;11.27;;
18290;SDS011;9271;48.590;8.866;2022-12-18T03:17:39;21.27;;;11.40;;
18290;SDS011;9271;48.590;8.866;2022-12-18T03:20:12;20.60;;;11.47;;
18290;SDS011;9271;48.590;8.866;2022-12-18T03:22:41;25.00;;;11.83;;
18290;SDS011;9271;48.590;8.866;2022-12-18T03:25:11;20.40;;;11.90;;
18290;SDS011;9271;48.590;8.866;2022-12-18T03:27:42;21.33;;;11.47;;
18290;SDS011;9271;48.590;8.866;2022-12-18T03:30:13;24.63;;;12.43;;
18290;SDS011;9271;48.590;8.866;2022-12-18T03:32:42;21.73;;;11.90;;
18290;SDS011;9271;48.590;8.866;2022-12-18T03:35:14;18.97;;;11.30;;
18290;SDS011;9271;48.590;8.866;2022-12-18T03:37:44;23.67;;;12.23;;
18290;SDS011;9271;48.590;8.866;2022-12-18T03:40:11;28.80;;;13.27;;
18290;SDS011;9271;48.590;8.866;2022-12-18T03:42:39;25.50;;;12.60;;
18290;SDS011;9271;48.590;8.866;2022-12-18T03:45:18;28.80;;;12.93;;
18290;SDS011;9271;48.590;8.866;2022-12-18T03:47:50;26.80;;;13.03;;
18290;SDS011;9271;48.590;8.866;2022-12-18T03:50:25;26.10;;;12.90;;
18290;SDS011;9271;48.590;8.866;2022-12-18T03:53:02;24.27;;;13.87;;
18290;SDS011;9271;48.590;8.866;2022-12-18T03:55:36;27.23;;;13.80;;
18290;SDS011;9271;48.590;8.866;2022-12-18T03:58:06;24.80;;;13.13;;
18290;SDS011;9271;48.590;8.866;2022-12-18T04:00:35;33.60;;;12.97;;
18290;SDS011;9271;48.590;8.866;2022-12-18T04:03:03;24.40;;;11.93;;
18290;SDS011;9271;48.590;8.866;2022-12-18T04:05:31;29.47;;;13.73;;
18290;SDS011;9271;48.590;8.866;2022-12-18T04:07:59;33.53;;;14.20;;
18290;SDS011;9271;48.590;8.866;2022-12-18T04:10:27;28.20;;;14.17;;
18290;SDS011;9271;48.590;8.866;2022-12-18T04:12:55;29.97;;;13.63;;
18290;SDS011;9271;48.590;8.866;2022-12-18T04:15:24;33.50;;;14.57;;
18290;SDS011;9271;48.590;8.866;2022-12-18T04:17:50;31.07;;;14.30;;
18290;SDS011;9271;48.590;8.866;2022-12-18T04:20:17;33.97;;;14.57;;
18290;SDS011;9271;48.590;8.866;2022-12-18T04:22:44;28.23;;;15.07;;
18290;SDS011;9271;48.590;8.866;2022-12-18T04:25:11;33.80;;;14.47;;
18290;SDS011;9271;48.590;8.866;2022-12-18T04:27:37;29.37;;;13.27;;
18290;SDS011;9271;48.590;8.866;2022-12-18T04:30:05;29.90;;;14.30;;
18290;SDS011;9271;48.590;8.866;2022-12-18T04:32:34;30.70;;;14.43;;
18290;SDS011;9271;48.590;8.866;2022-12-18T04:35:00;25.73;;;13.70;;
18290;SDS011;9271;48.590;8.866;2022-12-18T04:37:29;27.10;;;14.13;;
18290;SDS011;9271;48.590;8.866;2022-12-18T04:39:55;30.53;;;14.60;;
18290;SDS011;9271;48.590;8.866;2022-12-18T04:42:22;29.53;;;14.30;;
18290;SDS011;9271;48.590;8.866;2022-12-18T04:44:49;31.23;;;14.67;;
18290;SDS011;9271;48.590;8.866;2022-12-18T04:47:15;28.77;;;13.40;;
18290;SDS011;9271;48.590;8.866;2022-12-18T04:49:43;33.50;;;13.80;;
18290;SDS011;9271;48.590;8.866;2022-12-18T04:52:10;28.57;;;14.03;;
18290;SDS011;9271;48.590;8.866;2022-12-18T04:54:37;29.93;;;14.40;;
18290;SDS011;9271;48.590;8.866;2022-12-18T04:57:03;32.87;;;14.43;;
18290;SDS011;9271;48.590;8.866;2022-12-18T04:59:30;26.13;;;13.43;;
18290;SDS011;9271;48.590;8.866;2022-12-18T05:01:57;30.30;;;12.83;;
18290;SDS011;9271;48.590;8.866;2022-12-18T05:04:24;27.40;;;13.23;;
18290;SDS011;9271;48.590;8.866;2022-12-18T05:06:52;24.13;;;13.47;;
18290;SDS011;9271;48.590;8.866;2022-12-18T05:09:18;31.73;;;13.57;;
18290;SDS011;9271;48.590;8.866;2022-12-18T05:11:45;33.53;;;13.80;;
18290;SDS011;9271;48.590;8.866;2022-12-18T05:14:12;30.77;;;14.60;;
18290;SDS011;9271;48.590;8.866;2022-12-18T05:16:39;35.87;;;14.70;;
18290;SDS011;9271;48.590;8.866;2022-12-18T05:19:06;34.43;;;14.40;;
18290;SDS011;9271;48.590;8.866;2022-12-18T05:21:32;35.33;;;14.30;;
18290;SDS011;9271;48.590;8.866;2022-12-18T05:24:00;31.03;;;13.67;;
18290;SDS011;9271;48.590;8.866;2022-12-18T05:26:27;37.20;;;14.17;;
18290;SDS011;9271;48.590;8.866;2022-12-18T05:28:54;25.97;;;13.17;;
18290;SDS011;9271;48.590;8.866;2022-12-18T05:31:22;36.37;;;13.90;;
18290;SDS011;9271;48.590;8.866;2022-12-18T05:33:48;44.03;;;14.83;;
18290;SDS011;9271;48.590;8.866;2022-12-18T05:36:15;41.43;;;15.30;;
18290;SDS011;9271;48.590;8.866;2022-12-18T05:38:42;41.87;;;14.70;;
18290;SDS011;9271;48.590;8.866;2022-12-18T05:41:10;42.17;;;14.17;;
18290;SDS011;9271;48.590;8.866;2022-12-18T05:43:38;43.60;;;15.80;;
18290;SDS011;9271;48.590;8.866;2022-12-18T05:46:05;57.27;;;17.00;;
18290;SDS011;9271;48.590;8.866;2022-12-18T05:48:33;62.23;;;16.93;;
18290;SDS011;9271;48.590;8.866;2022-12-18T05:51:03;183.70;;;20.37;;
18290;SDS011;9271;48.590;8.866;2022-12-18T05:53:31;67.17;;;17.47;;
18290;SDS011;9271;48.590;8.866;2022-12-18T05:55:59;131.87;;;18.87;;
18290;SDS011;9271;48.590;8.866;2022-12-18T05:58:28;81.10;;;16.13;;
18290;SDS011;9271;48.590;8.866;2022-12-18T06:00:55;131.50;;;19.23;;
18290;SDS011;9271;48.590;8.866;2022-12-18T06:03:23;37.90;;;14.83;;
18290;SDS011;9271;48.590;8.866;2022-12-18T06:05:50;106.43;;;18.10;;
18290;SDS011;9271;48.590;8.866;2022-12-18T06:08:17;52.03;;;15.70;;
18290;SDS011;9271;48.590;8.866;2022-12-18T06:10:49;100.93;;;15.37;;
18290;SDS011;9271;48.590;8.866;2022-12-18T06:13:17;40.13;;;13.97;;
18290;SDS011;9271;48.590;8.866;2022-12-18T06:15:45;65.03;;;14.87;;
18290;SDS011;9271;48.590;8.866;2022-12-18T06:18:12;52.37;;;14.13;;
18290;SDS011;9271;48.590;8.866;2022-12-18T06:20:39;55.63;;;14.23;;
18290;SDS011;9271;48.590;8.866;2022-12-18T06:23:06;69.00;;;15.73;;
18290;SDS011;9271;48.590;8.866;2022-12-18T06:25:33;104.63;;;16.87;;
18290;SDS011;9271;48.590;8.866;2022-12-18T06:28:02;92.57;;;14.80;;
18290;SDS011;9271;48.590;8.866;2022-12-18T06:30:29;58.70;;;14.07;;
18290;SDS011;9271;48.590;8.866;2022-12-18T06:32:57;100.97;;;18.23;;
18290;SDS011;9271;48.590;8.866;2022-12-18T06:35:24;68.87;;;16.20;;
18290;SDS011;9271;48.590;8.866;2022-12-18T06:37:50;47.07;;;16.03;;
18290;SDS011;9271;48.590;8.866;2022-12-18T06:40:17;44.67;;;15.47;;
18290;SDS011;9271;48.590;8.866;2022-12-18T06:42:44;40.23;;;15.90;;
18290;SDS011;9271;48.590;8.866;2022-12-18T06:45:11;43.47;;;17.10;;
18290;SDS011;9271;48.590;8.866;2022-12-18T06:47:43;56.13;;;16.73;;
18290;SDS011;9271;48.590;8.866;2022-12-18T06:50:11;59.10;;;14.40;;
18290;SDS011;9271;48.590;8.866;2022-12-18T06:52:38;51.90;;;15.83;;
18290;SDS011;9271;48.590;8.866;2022-12-18T06:55:06;64.20;;;15.47;;
18290;SDS011;9271;48.590;8.866;2022-12-18T06:57:33;39.47;;;13.97;;
18290;SDS011;9271;48.590;8.866;2022-12-18T07:00:00;36.03;;;13.90;;
18290;SDS011;9271;48.590;8.866;2022-12-18T07:02:27;35.07;;;14.53;;
18290;SDS011;9271;48.590;8.866;2022-12-18T07:04:54;57.03;;;14.90;;
18290;SDS011;9271;48.590;8.866;2022-12-18T07:07:22;54.97;;;14.23;;
18290;SDS011;9271;48.590;8.866;2022-12-18T07:09:49;62.33;;;15.27;;
18290;SDS011;9271;48.590;8.866;2022-12-18T07:12:16;31.53;;;13.07;;
18290;SDS011;9271;48.590;8.866;2022-12-18T07:14:43;49.30;;;14.63;;
18290;SDS011;9271;48.590;8.866;2022-12-18T07:17:10;81.33;;;15.97;;
18290;SDS011;9271;48.590;8.866;2022-12-18T07:19:36;79.33;;;15.27;;
18290;SDS011;9271;48.590;8.866;2022-12-18T07:22:03;186.23;;;18.40;;
18290;SDS011;9271;48.590;8.866;2022-12-18T07:24:31;62.70;;;14.40;;
18290;SDS011;9271;48.590;8.866;2022-12-18T07:26:58;132.77;;;17.27;;
18290;SDS011;9271;48.590;8.866;2022-12-18T07:29:25;39.53;;;13.40;;
18290;SDS011;9271;48.590;8.866;2022-12-18T07:31:52;63.50;;;15.07;;
18290;SDS011;9271;48.590;8.866;2022-12-18T07:34:18;45.60;;;13.50;;
18290;SDS011;9271;48.590;8.866;2022-12-18T07:36:45;51.77;;;16.50;;
18290;SDS011;9271;48.590;8.866;2022-12-18T07:39:12;53.53;;;15.87;;
18290;SDS011;9271;48.590;8.866;2022-12-18T07:41:40;55.10;;;14.93;;
18290;SDS011;9271;48.590;8.866;2022-12-18T07:44:11;59.63;;;13.70;;
18290;SDS011;9271;48.590;8.866;2022-12-18T07:46:38;25.53;;;12.47;;
18290;SDS011;9271;48.590;8.866;2022-12-18T07:49:05;71.10;;;15.23;;
18290;SDS011;9271;48.590;8.866;2022-12-18T07:51:32;55.47;;;13.90;;
18290;SDS011;9271;48.590;8.866;2022-12-18T07:53:58;92.80;;;16.83;;
18290;SDS011;9271;48.590;8.866;2022-12-18T07:56:25;55.00;;;13.70;;
18290;SDS011;9271;48.590;8.866;2022-12-18T07:58:53;52.70;;;14.60;;
18290;SDS011;9271;48.590;8.866;2022-12-18T08:01:20;27.87;;;13.07;;
18290;SDS011;9271;48.590;8.866;2022-12-18T08:03:47;45.83;;;14.27;;
18290;SDS011;9271;48.590;8.866;2022-12-18T08:06:13;62.83;;;14.27;;
18290;SDS011;9271;48.590;8.866;2022-12-18T08:08:40;45.57;;;13.93;;
18290;SDS011;9271;48.590;8.866;2022-12-18T08:11:07;108.93;;;15.53;;
18290;SDS011;9271;48.590;8.866;2022-12-18T08:13:34;32.07;;;12.57;;
18290;SDS011;9271;48.590;8.866;2022-12-18T08:16:02;34.77;;;12.93;;
18290;SDS011;9271;48.590;8.866;2022-12-18T08:18:31;28.33;;;13.07;;
18290;SDS011;9271;48.590;8.866;2022-12-18T08:21:07;51.30;;;13.53;;
18290;SDS011;9271;48.590;8.866;2022-12-18T08:23:35;33.53;;;13.07;;
18290;SDS011;9271;48.590;8.866;2022-12-18T08:26:01;52.80;;;14.53;;
18290;SDS011;9271;48.590;8.866;2022-12-18T08:28:28;52.13;;;14.53;;
18290;SDS011;9271;48.590;8.866;2022-12-18T08:30:55;61.10;;;14.87;;
18290;SDS011;9271;48.590;8.866;2022-12-18T08:33:24;40.57;;;14.70;;
18290;SDS011;9271;48.590;8.866;2022-12-18T08:35:51;26.73;;;13.33;;
18290;SDS011;9271;48.590;8.866;2022-12-18T08:38:18;32.50;;;13.03;;
18290;SDS011;9271;48.590;8.866;2022-12-18T08:40:45;29.20;;;11.93;;
18290;SDS011;9271;48.590;8.866;2022-12-18T08:43:11;31.07;;;15.80;;
18290;SDS011;9271;48.590;8.866;2022-12-18T08:45:56;32.10;;;13.37;;
18290;SDS011;9271;48.590;8.866;2022-12-18T08:48:24;42.00;;;12.27;;
18290;SDS011;9271;48.590;8.866;2022-12-18T08:50:54;35.47;;;12.53;;
18290;SDS011;9271;48.590;8.866;2022-12-18T08:53:21;26.47;;;13.10;;
18290;SDS011;9271;48.590;8.866;2022-12-18T08:55:49;31.50;;;13.33;;
18290;SDS011;9271;48.590;8.866;2022-12-18T08:58:16;52.03;;;14.23;;
18290;SDS011;9271;48.590;8.866;2022-12-18T09:00:42;39.30;;;15.20;;
18290;SDS011;9271;48.590;8.866;2022-12-18T09:03:10;55.73;;;15.77;;
18290;SDS011;9271;48.590;8.866;2022-12-18T09:05:39;32.80;;;15.10;;
18290;SDS011;9271;48.590;8.866;2022-12-18T09:08:06;27.73;;;14.33;;
18290;SDS011;9271;48.590;8.866;2022-12-18T09:10:33;42.27;;;14.53;;
18290;SDS011;9271;48.590;8.866;2022-12-18T09:13:00;57.40;;;16.47;;
18290;SDS011;9271;48.590;8.866;2022-12-18T09:15:27;28.73;;;15.47;;
18290;SDS011;9271;48.590;8.866;2022-12-18T09:17:53;41.73;;;14.83;;
18290;SDS011;9271;48.590;8.866;2022-12-18T09:20:20;27.33;;;15.77;;
18290;SDS011;9271;48.590;8.866;2022-12-18T09:22:48;27.13;;;15.07;;
18290;SDS011;9271;48.590;8.866;2022-12-18T09:25:15;29.90;;;16.93;;
18290;SDS011;9271;48.590;8.866;2022-12-18T09:27:42;28.67;;;15.57;;
18290;SDS011;9271;48.590;8.866;2022-12-18T09:30:09;28.43;;;16.57;;
18290;SDS011;9271;48.590;8.866;2022-12-18T09:32:36;27.47;;;16.47;;
18290;SDS011;9271;48.590;8.866;2022-12-18T09:35:03;28.80;;;17.43;;
18290;SDS011;9271;48.590;8.866;2022-12-18T09:37:30;26.63;;;16.60;;
18290;SDS011;9271;48.590;8.866;2022-12-18T09:39:58;24.80;;;15.47;;
18290;SDS011;9271;48.590;8.866;2022-12-18T09:42:25;27.37;;;16.10;;
18290;SDS011;9271;48.590;8.866;2022-12-18T09:44:52;21.83;;;14.17;;
18290;SDS011;9271;48.590;8.866;2022-12-18T09:47:21;22.27;;;14.53;;
18290;SDS011;9271;48.590;8.866;2022-12-18T09:49:52;22.37;;;13.20;;
18290;SDS011;9271;48.590;8.866;2022-12-18T09:52:23;20.60;;;12.77;;
18290;SDS011;9271;48.590;8.866;2022-12-18T09:54:53;21.80;;;14.20;;
18290;SDS011;9271;48.590;8.866;2022-12-18T09:57:25;22.27;;;13.23;;
18290;SDS011;9271;48.590;8.866;2022-12-18T09:59:54;23.00;;;14.47;;
18290;SDS011;9271;48.590;8.866;2022-12-18T10:02:23;24.20;;;15.77;;
18290;SDS011;9271;48.590;8.866;2022-12-18T10:05:00;24.03;;;16.50;;
18290;SDS011;9271;48.590;8.866;2022-12-18T10:07:33;28.83;;;18.47;;
18290;SDS011;9271;48.590;8.866;2022-12-18T10:10:10;25.47;;;18.30;;
18290;SDS011;9271;48.590;8.866;2022-12-18T10:12:44;30.37;;;20.00;;
18290;SDS011;9271;48.590;8.866;2022-12-18T10:15:19;27.17;;;18.37;;
18290;SDS011;9271;48.590;8.866;2022-12-18T10:17:55;28.83;;;20.13;;
18290;SDS011;9271;48.590;8.866;2022-12-18T10:20:30;28.97;;;21.00;;
18290;SDS011;9271;48.590;8.866;2022-12-18T10:23:01;28.57;;;21.40;;
18290;SDS011;9271;48.590;8.866;2022-12-18T10:25:34;32.57;;;23.67;;
18290;SDS011;9271;48.590;8.866;2022-12-18T10:28:10;33.30;;;24.30;;
18290;SDS011;9271;48.590;8.866;2022-12-18T10:30:39;30.63;;;23.93;;
18290;SDS011;9271;48.590;8.866;2022-12-18T10:33:08;31.17;;;24.33;;
18290;SDS011;9271;48.590;8.866;2022-12-18T10:35:41;33.53;;;25.30;;
18290;SDS011;9271;48.590;8.866;2022-12-18T10:38:20;30.87;;;24.70;;
18290;SDS011;9271;48.590;8.866;2022-12-18T10:40:49;33.43;;;24.73;;
18290;SDS011;9271;48.590;8.866;2022-12-18T10:43:21;33.27;;;25.87;;
18290;SDS011;9271;48.590;8.866;2022-12-18T10:46:04;31.90;;;25.03;;
18290;SDS011;9271;48.590;8.866;2022-12-18T10:48:41;32.60;;;24.63;;
18290;SDS011;9271;48.590;8.866;2022-12-18T10:51:19;29.67;;;23.47;;
18290;SDS011;9271;48.590;8.866;2022-12-18T10:53:51;31.70;;;25.10;;
18290;SDS011;9271;48.590;8.866;2022-12-18T10:56:21;29.67;;;24.10;;
18290;SDS011;9271;48.590;8.866;2022-12-18T10:58:56;29.67;;;23.97;;
18290;SDS011;9271;48.590;8.866;2022-12-18T11:01:25;32.03;;;24.70;;
18290;SDS011;9271;48.590;8.866;2022-12-18T11:03:59;29.93;;;24.07;;
18290;SDS011;9271;48.590;8.866;2022-12-18T11:06:28;28.30;;;22.57;;
18290;SDS011;9271;48.590;8.866;2022-12-18T11:08:58;28.80;;;21.80;;
18290;SDS011;9271;48.590;8.866;2022-12-18T11:11:27;26.70;;;21.87;;
18290;SDS011;9271;48.590;8.866;2022-12-18T11:13:58;26.00;;;20.90;;
18290;SDS011;9271;48.590;8.866;2022-12-18T11:16:28;27.87;;;21.37;;
18290;SDS011;9271;48.590;8.866;2022-12-18T11:19:13;26.90;;;22.30;;
18290;SDS011;9271;48.590;8.866;2022-12-18T11:21:47;30.17;;;23.67;;
18290;SDS011;9271;48.590;8.866;2022-12-18T11:24:17;28.80;;;22.20;;
18290;SDS011;9271;48.590;8.866;2022-12-18T11:26:48;41.17;;;27.83;;
18290;SDS011;9271;48.590;8.866;2022-12-18T11:29:17;31.23;;;22.53;;
18290;SDS011;9271;48.590;8.866;2022-12-18T11:31:48;30.30;;;20.90;;
18290;SDS011;9271;48.590;8.866;2022-12-18T11:34:16;31.47;;;21.00;;
18290;SDS011;9271;48.590;8.866;2022-12-18T11:36:50;29.37;;;20.50;;
18290;SDS011;9271;48.590;8.866;2022-12-18T11:39:18;26.33;;;19.93;;
18290;SDS011;9271;48.590;8.866;2022-12-18T11:41:51;29.73;;;21.40;;
18290;SDS011;9271;48.590;8.866;2022-12-18T11:44:40;28.67;;;20.63;;
18290;SDS011;9271;48.590;8.866;2022-12-18T11:47:13;26.93;;;20.37;;
18290;SDS011;9271;48.590;8.866;2022-12-18T11:49:47;23.63;;;20.00;;
18290;SDS011;9271;48.590;8.866;2022-12-18T11:52:16;26.10;;;20.20;;
18290;SDS011;9271;48.590;8.866;2022-12-18T11:54:46;29.73;;;22.10;;
18290;SDS011;9271;48.590;8.866;2022-12-18T11:57:14;26.03;;;20.33;;
18290;SDS011;9271;48.590;8.866;2022-12-18T11:59:51;36.20;;;25.90;;
18290;SDS011;9271;48.590;8.866;2022-12-18T12:02:34;36.33;;;27.80;;
18290;SDS011;9271;48.590;8.866;2022-12-18T12:05:15;50.17;;;31.50;;
18290;SDS011;9271;48.590;8.866;2022-12-18T12:07:51;34.07;;;23.93;;
18290;SDS011;9271;48.590;8.866;2022-12-18T12:10:31;31.77;;;23.93;;
18290;SDS011;9271;48.590;8.866;2022-12-18T12:13:08;30.17;;;20.40;;
18290;SDS011;9271;48.590;8.866;2022-12-18T12:15:46;25.47;;;20.07;;
18290;SDS011;9271;48.590;8.866;2022-12-18T12:18:27;25.43;;;18.70;;
18290;SDS011;9271;48.590;8.866;2022-12-18T12:21:02;22.50;;;18.23;;
18290;SDS011;9271;48.590;8.866;2022-12-18T12:23:35;23.57;;;18.23;;
18290;SDS011;9271;48.590;8.866;2022-12-18T12:26:07;25.87;;;17.77;;
18290;SDS011;9271;48.590;8.866;2022-12-18T12:28:44;24.53;;;17.77;;
18290;SDS011;9271;48.590;8.866;2022-12-18T12:31:23;23.47;;;17.50;;
18290;SDS011;9271;48.590;8.866;2022-12-18T12:33:59;25.53;;;18.03;;
18290;SDS011;9271;48.590;8.866;2022-12-18T12:36:36;26.23;;;18.77;;
18290;SDS011;9271;48.590;8.866;2022-12-18T12:39:13;25.27;;;18.17;;
18290;SDS011;9271;48.590;8.866;2022-12-18T12:41:44;25.57;;;18.17;;
18290;SDS011;9271;48.590;8.866;2022-12-18T12:44:30;23.13;;;17.70;;
18290;SDS011;9271;48.590;8.866;2022-12-18T12:47:07;27.83;;;17.70;;
18290;SDS011;9271;48.590;8.866;2022-12-18T12:49:40;24.70;;;17.90;;
18290;SDS011;9271;48.590;8.866;2022-12-18T12:52:14;23.70;;;18.13;;
18290;SDS011;9271;48.590;8.866;2022-12-18T12:54:43;27.40;;;18.00;;
18290;SDS011;9271;48.590;8.866;2022-12-18T12:57:11;25.20;;;18.40;;
18290;SDS011;9271;48.590;8.866;2022-12-18T12:59:45;27.57;;;19.03;;
18290;SDS011;9271;48.590;8.866;2022-12-18T13:02:20;25.97;;;17.33;;
18290;SDS011;9271;48.590;8.866;2022-12-18T13:04:52;33.60;;;23.37;;
18290;SDS011;9271;48.590;8.866;2022-12-18T13:07:25;34.90;;;24.23;;
18290;SDS011;9271;48.590;8.866;2022-12-18T13:10:12;39.17;;;25.17;;
18290;SDS011;9271;48.590;8.866;2022-12-18T13:12:52;34.43;;;23.87;;
18290;SDS011;9271;48.590;8.866;2022-12-18T13:15:23;32.50;;;21.90;;
18290;SDS011;9271;48.590;8.866;2022-12-18T13:18:03;28.57;;;19.33;;
18290;SDS011;9271;48.590;8.866;2022-12-18T13:20:36;28.70;;;18.97;;
18290;SDS011;9271;48.590;8.866;2022-12-18T13:23:18;25.93;;;18.67;;
18290;SDS011;9271;48.590;8.866;2022-12-18T13:25:53;29.13;;;19.47;;
18290;SDS011;9271;48.590;8.866;2022-12-18T13:28:21;28.07;;;18.97;;
18290;SDS011;9271;48.590;8.866;2022-12-18T13:30:54;25.97;;;17.93;;
18290;SDS011;9271;48.590;8.866;2022-12-18T13:33:39;27.83;;;17.97;;
18290;SDS011;9271;48.590;8.866;2022-12-18T13:36:15;27.80;;;19.73;;
18290;SDS011;9271;48.590;8.866;2022-12-18T13:45:37;29.90;;;19.13;;
18290;SDS011;9271;48.590;8.866;2022-12-18T13:48:14;27.87;;;17.27;;
18290;SDS011;9271;48.590;8.866;2022-12-18T13:50:58;24.87;;;16.43;;
18290;SDS011;9271;48.590;8.866;2022-12-18T13:53:29;24.43;;;16.57;;
18290;SDS011;9271;48.590;8.866;2022-12-18T13:56:00;23.23;;;15.27;;
18290;SDS011;9271;48.590;8.866;2022-12-18T13:58:27;18.83;;;14.83;;
18290;SDS011;9271;48.590;8.866;2022-12-18T14:00:54;23.37;;;15.87;;
18290;SDS011;9271;48.590;8.866;2022-12-18T14:03:22;24.27;;;16.43;;
18290;SDS011;9271;48.590;8.866;2022-12-18T14:05:52;25.47;;;16.90;;
18290;SDS011;9271;48.590;8.866;2022-12-18T14:08:23;25.23;;;16.17;;
18290;SDS011;9271;48.590;8.866;2022-12-18T14:10:53;22.40;;;15.53;;
18290;SDS011;9271;48.590;8.866;2022-12-18T14:13:22;23.17;;;15.93;;
18290;SDS011;9271;48.590;8.866;2022-12-18T14:15:52;25.27;;;15.77;;
18290;SDS011;9271;48.590;8.866;2022-12-18T14:18:21;26.83;;;16.10;;
18290;SDS011;9271;48.590;8.866;2022-12-18T14:20:50;23.07;;;16.47;;
18290;SDS011;9271;48.590;8.866;2022-12-18T14:23:30;26.87;;;17.73;;
18290;SDS011;9271;48.590;8.866;2022-12-18T14:25:59;27.43;;;16.73;;
18290;SDS011;9271;48.590;8.866;2022-12-18T14:28:27;23.50;;;15.87;;
18290;SDS011;9271;48.590;8.866;2022-12-18T14:30:54;25.23;;;16.80;;
18290;SDS011;9271;48.590;8.866;2022-12-18T14:33:21;24.83;;;16.43;;
18290;SDS011;9271;48.590;8.866;2022-12-18T14:35:55;22.20;;;14.90;;
18290;SDS011;9271;48.590;8.866;2022-12-18T14:38:24;23.13;;;15.87;;
18290;SDS011;9271;48.590;8.866;2022-12-18T14:40:57;23.23;;;16.10;;
18290;SDS011;9271;48.590;8.866;2022-12-18T14:43:26;22.97;;;15.20;;
18290;SDS011;9271;48.590;8.866;2022-12-18T14:45:53;23.23;;;16.27;;
18290;SDS011;9271;48.590;8.866;2022-12-18T14:48:21;21.13;;;14.13;;
18290;SDS011;9271;48.590;8.866;2022-12-18T14:50:59;19.70;;;13.73;;
18290;SDS011;9271;48.590;8.866;2022-12-18T14:53:33;21.93;;;13.80;;
18290;SDS011;9271;48.590;8.866;2022-12-18T14:56:03;21.27;;;13.93;;
18290;SDS011;9271;48.590;8.866;2022-12-18T14:58:39;20.30;;;12.73;;